Time;durP1;ratioP1;P1;durP2;ratioP2;P2;SDS_P1;SDS_P2;PMS_P1;PMS_P2;Temp;Humidity;BMP_temperature;BMP_pressure;BME280_temperature;BME280_humidity;BME280_pressure;Samples;Min_cycle;Max_cycle;Signal;HPM_P1;HPM_P2
2023/12/10 00:02:19;;;;;;;76.40;26.42;;;;;;;1.25;100.00;99966.28;5093130;28;20048;-41
2023/12/10 00:04:48;;;;;;;79.15;26.65;;;;;;;1.31;100.00;99981.88;5093148;28;20109;-42
2023/12/10 00:07:20;;;;;;;74.15;24.27;;;;;;;1.42;100.00;99980.69;5093037;28;20044;-41
2023/12/10 00:09:49;;;;;;;79.07;25.87;;;;;;;1.35;100.00;99978.25;5093341;28;20102;-41
2023/12/10 00:12:18;;;;;;;72.22;24.63;;;;;;;1.37;100.00;99972.09;5092925;28;20108;-41
2023/12/10 00:14:52;;;;;;;78.18;24.63;;;;;;;1.50;100.00;99966.47;5093014;28;20047;-42
2023/12/10 00:17:20;;;;;;;74.28;23.42;;;;;;;1.22;100.00;99967.22;5092862;28;20416;-41
2023/12/10 00:19:49;;;;;;;70.60;23.20;;;;;;;1.13;100.00;99963.06;5092696;28;20067;-41
2023/12/10 00:22:19;;;;;;;79.82;23.70;;;;;;;1.10;100.00;99949.16;5092986;28;20098;-40
2023/12/10 00:24:47;;;;;;;71.90;24.48;;;;;;;1.08;100.00;99938.72;5092610;28;20040;-40
2023/12/10 00:27:16;;;;;;;77.63;23.73;;;;;;;1.13;100.00;99935.94;5092713;28;20047;-42
2023/12/10 00:29:44;;;;;;;68.78;22.60;;;;;;;1.35;100.00;99933.59;5092458;28;20135;-42
2023/12/10 00:32:12;;;;;;;73.18;23.67;;;;;;;1.26;100.00;99932.09;5092840;28;20556;-41
2023/12/10 00:34:41;;;;;;;74.22;23.38;;;;;;;1.28;100.00;99937.31;5092413;28;20626;-40
2023/12/10 00:37:11;;;;;;;76.18;25.55;;;;;;;1.13;100.00;99941.19;5092783;28;20048;-42
2023/12/10 00:39:41;;;;;;;77.28;24.33;;;;;;;1.08;100.00;99954.47;5092461;28;20056;-41
2023/12/10 00:42:09;;;;;;;81.75;23.90;;;;;;;1.31;100.00;99952.97;5092421;28;20127;-40
2023/12/10 00:44:38;;;;;;;83.93;25.00;;;;;;;1.23;100.00;99957.56;5092540;28;20132;-40
2023/12/10 00:47:07;;;;;;;86.72;24.92;;;;;;;1.04;100.00;99947.56;5092122;28;20409;-41
2023/12/10 00:49:35;;;;;;;79.80;25.10;;;;;;;1.25;100.00;99945.25;5092464;28;20082;-41
2023/12/10 00:52:04;;;;;;;84.10;26.27;;;;;;;1.25;100.00;99950.50;5092079;28;20052;-41
2023/12/10 00:54:33;;;;;;;90.15;26.83;;;;;;;1.17;100.00;99948.13;5092007;28;20048;-40
2023/12/10 00:57:03;;;;;;;81.30;24.65;;;;;;;1.24;100.00;99938.28;5092374;28;20051;-41
2023/12/10 00:59:31;;;;;;;80.35;26.05;;;;;;;1.19;100.00;99929.66;5092029;28;20125;-41
2023/12/10 01:02:00;;;;;;;83.35;25.25;;;;;;;1.23;100.00;99926.03;5092049;28;20048;-41
2023/12/10 01:04:28;;;;;;;90.95;26.85;;;;;;;1.25;100.00;99926.84;5091631;28;20048;-41
2023/12/10 01:06:57;;;;;;;91.40;26.40;;;;;;;1.21;100.00;99928.72;5092159;28;20086;-41
2023/12/10 01:09:25;;;;;;;86.97;27.55;;;;;;;1.15;100.00;99929.72;5092184;28;20109;-42
2023/12/10 01:11:53;;;;;;;93.05;26.67;;;;;;;1.22;100.00;99919.06;5091783;28;20488;-41
2023/12/10 01:14:23;;;;;;;86.95;25.95;;;;;;;1.22;100.00;99909.41;5092084;28;20437;-40
2023/12/10 01:16:51;;;;;;;86.85;25.15;;;;;;;1.32;100.00;99905.63;5091747;28;20507;-41
2023/12/10 01:19:20;;;;;;;85.05;26.00;;;;;;;1.37;100.00;99914.25;5092118;28;20052;-41
2023/12/10 01:21:49;;;;;;;91.05;26.25;;;;;;;1.39;100.00;99914.22;5091862;28;20078;-41
2023/12/10 01:24:17;;;;;;;80.30;24.27;;;;;;;1.55;100.00;99912.88;5091739;28;20414;-42
2023/12/10 01:26:46;;;;;;;82.40;24.33;;;;;;;1.63;100.00;99899.50;5091552;28;20055;-41
2023/12/10 01:29:15;;;;;;;84.05;24.90;;;;;;;1.44;100.00;99896.53;5092003;28;20076;-41
2023/12/10 01:31:45;;;;;;;75.85;24.75;;;;;;;1.54;100.00;99900.63;5091728;28;20047;-41
2023/12/10 01:34:14;;;;;;;78.93;25.27;;;;;;;1.63;100.00;99900.34;5091507;28;20073;-40
2023/12/10 01:36:43;;;;;;;71.00;23.65;;;;;;;1.59;100.00;99887.34;5091713;28;20062;-41
2023/12/10 01:39:14;;;;;;;70.07;22.48;;;;;;;1.51;100.00;99879.69;5091433;28;20605;-41
2023/12/10 01:41:43;;;;;;;68.65;22.15;;;;;;;1.44;100.00;99878.13;5091261;28;20083;-41
2023/12/10 01:44:12;;;;;;;69.40;21.67;;;;;;;1.52;100.00;99878.78;5091522;28;20071;-41
2023/12/10 01:46:40;;;;;;;63.53;22.95;;;;;;;1.57;100.00;99879.53;5091765;28;20063;-41
2023/12/10 01:49:11;;;;;;;60.00;22.05;;;;;;;1.64;100.00;99878.44;5091734;28;20044;-41
2023/12/10 01:51:40;;;;;;;66.38;22.05;;;;;;;1.83;100.00;99875.22;5092734;28;20117;-42
2023/12/10 01:54:09;;;;;;;61.92;20.95;;;;;;;1.60;100.00;99868.91;5092151;28;20058;-41
2023/12/10 01:56:38;;;;;;;61.80;21.90;;;;;;;1.61;100.00;99870.63;5091647;28;20054;-42
2023/12/10 01:59:11;;;;;;;61.00;21.75;;;;;;;1.80;100.00;99876.19;5091571;28;20044;-40
2023/12/10 02:01:40;;;;;;;62.47;22.95;;;;;;;1.65;100.00;99872.28;5091257;28;20079;-41
2023/12/10 02:04:11;;;;;;;58.58;21.23;;;;;;;1.59;100.00;99864.56;5091355;28;20406;-43
2023/12/10 02:06:40;;;;;;;64.65;20.92;;;;;;;1.77;100.00;99859.66;5091253;28;20044;-41
2023/12/10 02:09:12;;;;;;;56.35;21.27;;;;;;;1.40;100.00;99855.50;5091353;28;20044;-41
2023/12/10 02:11:42;;;;;;;55.65;21.30;;;;;;;1.44;100.00;99847.47;5091268;28;20101;-41
2023/12/10 02:14:10;;;;;;;52.40;19.65;;;;;;;1.57;100.00;99841.84;5091460;28;20052;-41
2023/12/10 02:16:38;;;;;;;55.10;20.63;;;;;;;1.70;100.00;99833.53;5090873;28;20435;-41
2023/12/10 02:19:07;;;;;;;59.25;21.00;;;;;;;1.62;100.00;99839.94;5091090;28;20044;-41
2023/12/10 02:21:38;;;;;;;52.25;20.08;;;;;;;1.61;100.00;99836.44;5090935;28;20048;-41
2023/12/10 02:24:10;;;;;;;58.67;21.85;;;;;;;1.53;100.00;99830.56;5091333;28;20055;-41
2023/12/10 02:26:41;;;;;;;48.30;19.92;;;;;;;1.59;100.00;99832.16;5091170;28;20197;-41
2023/12/10 02:29:09;;;;;;;54.15;20.23;;;;;;;1.46;100.00;99828.19;5091090;28;20090;-41
2023/12/10 02:31:38;;;;;;;53.17;20.23;;;;;;;1.49;100.00;99828.06;5091515;28;20048;-41
2023/12/10 02:34:06;;;;;;;54.53;20.67;;;;;;;1.53;100.00;99821.81;5091102;28;20546;-41
2023/12/10 02:36:35;;;;;;;57.00;21.58;;;;;;;1.50;100.00;99819.28;5091214;28;20047;-40
2023/12/10 02:39:04;;;;;;;54.65;20.58;;;;;;;1.25;100.00;99804.22;5091078;28;20419;-42
2023/12/10 02:41:32;;;;;;;52.45;20.00;;;;;;;1.42;100.00;99801.09;5090978;28;20051;-41
2023/12/10 02:44:02;;;;;;;54.30;20.92;;;;;;;1.43;100.00;99802.81;5090988;28;20047;-41
2023/12/10 02:46:30;;;;;;;47.22;20.05;;;;;;;1.42;100.00;99794.09;5090937;28;20052;-40
2023/12/10 02:48:58;;;;;;;54.15;21.17;;;;;;;1.42;100.00;99790.59;5091043;28;20143;-41
2023/12/10 02:51:27;;;;;;;54.80;21.50;;;;;;;1.51;100.00;99787.69;5091300;28;20044;-40
2023/12/10 02:53:55;;;;;;;53.20;19.83;;;;;;;1.48;100.00;99790.41;5094624;28;20052;-42
2023/12/10 02:56:24;;;;;;;52.35;19.60;;;;;;;1.40;100.00;99793.28;5094515;28;20097;-42
2023/12/10 02:58:52;;;;;;;53.80;20.17;;;;;;;1.49;100.00;99788.66;5094423;28;20048;-40
2023/12/10 03:01:24;;;;;;;56.85;20.70;;;;;;;1.57;100.00;99778.78;5094587;28;20139;-42
2023/12/10 03:03:52;;;;;;;52.38;20.00;;;;;;;1.54;100.00;99769.19;5094345;28;20063;-42
2023/12/10 03:06:20;;;;;;;56.35;22.58;;;;;;;1.61;100.00;99760.22;5093862;28;20044;-41
2023/12/10 03:08:49;;;;;;;60.05;22.15;;;;;;;1.37;100.00;99739.97;5094222;28;20044;-41
2023/12/10 03:11:17;;;;;;;56.95;21.35;;;;;;;1.47;100.00;99736.13;5094564;28;20098;-41
2023/12/10 03:13:45;;;;;;;61.30;21.80;;;;;;;1.56;100.00;99743.75;5093999;28;20568;-41
2023/12/10 03:16:14;;;;;;;56.58;21.42;;;;;;;1.63;100.00;99753.13;5094378;28;20044;-41
2023/12/10 03:18:43;;;;;;;55.13;21.00;;;;;;;1.58;100.00;99754.19;5094137;28;20048;-41
2023/12/10 03:21:12;;;;;;;61.15;21.88;;;;;;;1.60;100.00;99747.13;5094094;28;20121;-41
2023/12/10 03:23:40;;;;;;;62.63;22.33;;;;;;;1.60;100.00;99750.59;5094350;28;20044;-42
2023/12/10 03:26:08;;;;;;;59.88;22.17;;;;;;;1.59;100.00;99748.88;5093847;28;20092;-41
2023/12/10 03:28:36;;;;;;;60.33;22.23;;;;;;;1.61;100.00;99756.72;5093977;28;20044;-43
2023/12/10 03:31:05;;;;;;;64.15;23.77;;;;;;;1.73;100.00;99751.91;5093682;28;20573;-40
2023/12/10 03:33:34;;;;;;;69.68;24.67;;;;;;;1.53;100.00;99769.25;5093687;28;20231;-42
2023/12/10 03:36:05;;;;;;;64.47;22.75;;;;;;;1.63;100.00;99758.38;5093810;28;20114;-41
2023/12/10 03:38:34;;;;;;;64.80;24.20;;;;;;;1.40;100.00;99756.47;5093498;28;20390;-41
2023/12/10 03:41:03;;;;;;;67.72;23.17;;;;;;;1.62;100.00;99761.94;5093813;28;20040;-40
2023/12/10 03:43:31;;;;;;;67.80;22.88;;;;;;;1.77;100.00;99750.06;5093816;28;20618;-41
2023/12/10 03:45:59;;;;;;;61.33;23.33;;;;;;;1.90;100.00;99753.16;5093654;28;20044;-40
2023/12/10 03:48:27;;;;;;;65.60;23.63;;;;;;;1.77;100.00;99765.00;5093608;28;20044;-41
2023/12/10 03:50:56;;;;;;;60.67;22.60;;;;;;;1.78;100.00;99772.81;5093411;28;20040;-41
2023/12/10 03:53:26;;;;;;;59.47;23.65;;;;;;;1.41;100.00;99763.47;5094076;28;20071;-41
2023/12/10 03:55:54;;;;;;;55.90;22.40;;;;;;;1.60;100.00;99761.13;5093955;28;20494;-40
2023/12/10 03:58:22;;;;;;;62.65;23.70;;;;;;;1.48;100.00;99758.03;5093545;28;20051;-42
2023/12/10 04:00:51;;;;;;;60.42;23.48;;;;;;;1.61;100.00;99768.09;5093269;28;20153;-41
2023/12/10 04:03:19;;;;;;;58.58;23.10;;;;;;;1.75;100.00;99770.31;5092617;28;20048;-41
2023/12/10 04:05:48;;;;;;;53.47;22.05;;;;;;;1.58;100.00;99764.72;5093201;28;20454;-40
2023/12/10 04:08:16;;;;;;;56.97;21.85;;;;;;;1.48;100.00;99761.50;5093043;28;20089;-41
2023/12/10 04:10:46;;;;;;;59.70;22.33;;;;;;;1.48;100.00;99769.41;5093308;28;20074;-41
2023/12/10 04:13:15;;;;;;;61.40;23.70;;;;;;;1.54;100.00;99766.56;5092910;28;20052;-42
2023/12/10 04:15:45;;;;;;;56.25;22.15;;;;;;;1.66;100.00;99763.56;5093336;28;20481;-44
2023/12/10 04:18:14;;;;;;;51.88;22.17;;;;;;;1.77;100.00;99765.00;5092696;28;20051;-41
2023/12/10 04:20:43;;;;;;;60.00;22.92;;;;;;;1.84;100.00;99766.53;5092584;28;20054;-42
2023/12/10 04:23:12;;;;;;;58.08;21.92;;;;;;;1.80;100.00;99763.13;5095632;28;20135;-43
2023/12/10 04:25:40;;;;;;;52.22;21.83;;;;;;;1.89;100.00;99743.53;5094434;28;20052;-42
2023/12/10 04:28:10;;;;;;;55.92;21.60;;;;;;;1.85;100.00;99753.31;5093107;28;20051;-40
2023/12/10 04:30:38;;;;;;;58.90;22.42;;;;;;;1.95;100.00;99743.34;5092591;28;20052;-41
2023/12/10 04:33:07;;;;;;;61.47;23.48;;;;;;;1.55;100.00;99749.91;5092654;28;20119;-41
2023/12/10 04:35:35;;;;;;;58.60;23.15;;;;;;;1.63;100.00;99749.63;5092543;28;20063;-41
2023/12/10 04:38:04;;;;;;;56.15;21.88;;;;;;;1.53;100.00;99741.19;5092743;28;20346;-41
2023/12/10 04:40:32;;;;;;;59.50;23.60;;;;;;;1.61;100.00;99744.44;5092443;28;20130;-40
2023/12/10 04:43:01;;;;;;;61.00;23.42;;;;;;;1.69;100.00;99745.06;5092692;28;20101;-40
2023/12/10 04:45:31;;;;;;;56.88;22.52;;;;;;;1.83;100.00;99749.00;5092265;28;20130;-42
2023/12/10 04:47:59;;;;;;;58.35;22.63;;;;;;;1.77;100.00;99739.56;5092312;28;20138;-40
2023/12/10 04:50:28;;;;;;;58.00;22.35;;;;;;;1.80;100.00;99751.72;5092095;28;20189;-41
2023/12/10 04:52:56;;;;;;;53.28;22.00;;;;;;;1.90;100.00;99751.38;5092121;28;20058;-42
2023/12/10 04:55:24;;;;;;;57.10;22.02;;;;;;;1.97;100.00;99747.66;5092148;28;20055;-42
2023/12/10 04:57:53;;;;;;;57.15;22.02;;;;;;;2.06;100.00;99743.00;5091947;28;20066;-42
2023/12/10 05:00:21;;;;;;;59.55;22.20;;;;;;;2.18;100.00;99745.22;5092132;28;20361;-40
2023/12/10 05:02:51;;;;;;;60.33;22.30;;;;;;;2.22;100.00;99746.81;5092343;28;20044;-41
2023/12/10 05:05:19;;;;;;;55.67;21.90;;;;;;;2.23;100.00;99749.41;5092267;28;20097;-40
2023/12/10 05:07:48;;;;;;;58.28;21.27;;;;;;;2.22;100.00;99749.44;5091914;28;20048;-47
2023/12/10 05:10:16;;;;;;;54.60;21.13;;;;;;;2.26;100.00;99749.31;5091916;28;20460;-42
2023/12/10 05:12:45;;;;;;;55.33;22.33;;;;;;;2.25;100.00;99755.47;5092172;28;20151;-42
2023/12/10 05:15:14;;;;;;;52.75;21.58;;;;;;;2.19;100.00;99750.41;5090981;28;20484;-41
2023/12/10 05:17:42;;;;;;;51.38;20.98;;;;;;;2.10;100.00;99747.22;5091881;28;20048;-42
2023/12/10 05:20:12;;;;;;;50.17;20.40;;;;;;;2.09;100.00;99735.84;5092002;28;20506;-41
2023/12/10 05:22:41;;;;;;;51.85;20.88;;;;;;;2.08;100.00;99738.53;5091609;28;20139;-40
2023/12/10 05:25:11;;;;;;;49.45;20.17;;;;;;;2.06;100.00;99743.84;5091371;28;20056;-40
2023/12/10 05:27:39;;;;;;;55.90;21.25;;;;;;;2.02;100.00;99747.47;5092106;28;20079;-41
2023/12/10 05:30:08;;;;;;;53.28;20.80;;;;;;;2.11;100.00;99748.94;5091916;28;20454;-40
2023/12/10 05:32:37;;;;;;;52.40;20.38;;;;;;;2.06;100.00;99740.38;5091913;28;20119;-40
2023/12/10 05:35:06;;;;;;;48.92;20.17;;;;;;;2.00;100.00;99742.28;5091590;28;20086;-41
2023/12/10 05:37:35;;;;;;;51.53;21.00;;;;;;;2.10;100.00;99750.72;5091665;28;20058;-41
2023/12/10 05:40:05;;;;;;;52.22;20.45;;;;;;;2.05;100.00;99742.13;5091478;28;20477;-45
2023/12/10 05:42:33;;;;;;;48.72;20.20;;;;;;;1.82;100.00;99748.13;5091682;28;20094;-41
2023/12/10 05:45:02;;;;;;;53.92;20.83;;;;;;;1.90;100.00;99750.53;5091594;28;20047;-41
2023/12/10 05:47:30;;;;;;;50.83;20.58;;;;;;;1.90;100.00;99753.16;5091719;28;20051;-41
2023/12/10 05:49:59;;;;;;;47.90;20.33;;;;;;;2.06;100.00;99756.16;5091605;28;20092;-41
2023/12/10 05:52:27;;;;;;;52.28;19.83;;;;;;;1.90;100.00;99753.16;5091653;28;20058;-40
2023/12/10 05:54:58;;;;;;;47.85;20.27;;;;;;;1.81;100.00;99751.69;5091757;28;20052;-41
2023/12/10 05:57:27;;;;;;;52.42;20.63;;;;;;;1.83;100.00;99755.13;5092643;28;20055;-42
2023/12/10 05:59:56;;;;;;;52.17;20.15;;;;;;;1.73;100.00;99762.44;5091933;28;20416;-41
2023/12/10 06:02:24;;;;;;;47.20;19.17;;;;;;;1.89;100.00;99759.31;5092301;28;20044;-40
2023/12/10 06:04:52;;;;;;;52.67;21.02;;;;;;;2.00;100.00;99757.19;5094424;28;20399;-41
2023/12/10 06:07:21;;;;;;;52.35;19.10;;;;;;;2.02;100.00;99760.63;5095366;28;20105;-41
2023/12/10 06:09:49;;;;;;;55.50;20.20;;;;;;;2.09;100.00;99759.53;5093636;28;20044;-43
2023/12/10 06:12:19;;;;;;;53.05;19.67;;;;;;;2.13;100.00;99757.69;5092983;28;20044;-42
2023/12/10 06:14:47;;;;;;;50.97;19.75;;;;;;;2.21;100.00;99755.63;5092752;28;20189;-43
2023/12/10 06:17:15;;;;;;;48.30;19.02;;;;;;;2.22;100.00;99757.34;5091592;28;20131;-41
2023/12/10 06:19:44;;;;;;;46.47;18.92;;;;;;;2.08;100.00;99765.72;5092534;28;20048;-42
2023/12/10 06:22:13;;;;;;;44.05;18.13;;;;;;;2.17;100.00;99759.28;5092826;28;20385;-42
2023/12/10 06:24:41;;;;;;;41.22;17.40;;;;;;;2.27;100.00;99764.16;5092098;28;20500;-42
2023/12/10 06:27:09;;;;;;;47.03;18.45;;;;;;;2.19;100.00;99762.72;5092991;28;20143;-42
2023/12/10 06:29:39;;;;;;;42.65;17.77;;;;;;;2.16;100.00;99762.81;5096038;28;20040;-41
2023/12/10 06:32:08;;;;;;;41.90;17.50;;;;;;;2.19;100.00;99766.19;5095935;28;20046;-44
2023/12/10 06:34:36;;;;;;;46.70;18.25;;;;;;;2.12;100.00;99772.56;5097437;28;20052;-41
2023/12/10 06:37:05;;;;;;;46.40;17.92;;;;;;;2.14;100.00;99773.41;5098062;28;20047;-42
2023/12/10 06:39:33;;;;;;;43.13;17.95;;;;;;;2.23;100.00;99786.25;5097070;28;20128;-42
2023/12/10 06:42:02;;;;;;;44.75;18.13;;;;;;;1.97;100.00;99788.88;5096242;28;20463;-41
2023/12/10 06:44:32;;;;;;;45.28;18.10;;;;;;;2.09;100.00;99788.47;5096212;28;20211;-41
2023/12/10 06:47:01;;;;;;;47.47;17.90;;;;;;;2.21;100.00;99793.31;5096269;28;20087;-41
2023/12/10 06:49:30;;;;;;;43.90;18.60;;;;;;;2.03;100.00;99791.31;5095888;28;20040;-41
2023/12/10 06:51:58;;;;;;;43.45;18.70;;;;;;;2.00;100.00;99797.53;5095768;28;20131;-42
2023/12/10 06:54:27;;;;;;;40.10;17.02;;;;;;;1.98;100.00;99799.34;5095041;28;20112;-41
2023/12/10 06:56:55;;;;;;;41.15;17.27;;;;;;;2.02;100.00;99815.88;5094822;28;20044;-40
2023/12/10 06:59:23;;;;;;;40.10;16.58;;;;;;;1.97;100.00;99809.91;5095091;28;20040;-42
2023/12/10 07:01:52;;;;;;;40.10;16.45;;;;;;;1.98;100.00;99816.91;5095111;28;20143;-40
2023/12/10 07:04:22;;;;;;;34.75;15.25;;;;;;;2.13;100.00;99816.41;5094735;28;20048;-41
2023/12/10 07:06:51;;;;;;;41.85;17.60;;;;;;;2.10;100.00;99820.91;5094926;28;20507;-41
2023/12/10 07:09:19;;;;;;;39.22;16.15;;;;;;;2.10;100.00;99821.75;5094579;28;20044;-42
2023/12/10 07:11:47;;;;;;;34.85;15.82;;;;;;;2.03;100.00;99822.00;5094423;28;20070;-41
2023/12/10 07:14:16;;;;;;;33.13;15.35;;;;;;;1.98;100.00;99827.44;5095315;28;20133;-40
2023/12/10 07:16:44;;;;;;;36.60;16.17;;;;;;;2.01;100.00;99824.69;5094853;28;20051;-40
2023/12/10 07:19:13;;;;;;;33.67;14.48;;;;;;;1.93;100.00;99824.06;5094650;28;20044;-44
2023/12/10 07:21:43;;;;;;;32.92;15.15;;;;;;;1.73;100.00;99822.91;5094464;28;20371;-40
2023/12/10 07:24:11;;;;;;;32.47;15.10;;;;;;;1.90;100.00;99829.44;5094266;28;20470;-40
2023/12/10 07:26:40;;;;;;;32.67;14.30;;;;;;;2.04;100.00;99821.97;5094084;28;20044;-41
2023/12/10 07:29:08;;;;;;;36.20;16.20;;;;;;;2.11;100.00;99828.75;5094190;28;20063;-42
2023/12/10 07:31:37;;;;;;;34.17;14.50;;;;;;;2.01;100.00;99835.22;5093955;28;20054;-39
2023/12/10 07:34:05;;;;;;;34.08;15.32;;;;;;;1.98;100.00;99835.31;5093861;28;20127;-41
2023/12/10 07:36:34;;;;;;;35.15;16.02;;;;;;;1.79;100.00;99835.03;5093789;28;20079;-41
2023/12/10 07:39:09;;;;;;;35.88;16.27;;;;;;;2.07;100.00;99835.03;5092858;28;20135;-41
2023/12/10 07:41:37;;;;;;;38.33;17.05;;;;;;;1.78;100.00;99835.94;5093657;28;20051;-41
2023/12/10 07:44:06;;;;;;;36.15;16.45;;;;;;;1.63;100.00;99842.50;5093920;28;20048;-40
2023/12/10 07:46:34;;;;;;;35.72;16.15;;;;;;;1.64;100.00;99839.00;5093560;28;20055;-42
2023/12/10 07:49:03;;;;;;;38.08;16.85;;;;;;;1.83;100.00;99838.41;5093777;28;20143;-40
2023/12/10 07:51:31;;;;;;;39.50;16.75;;;;;;;1.90;100.00;99843.44;5093577;28;20059;-43
2023/12/10 07:54:00;;;;;;;37.75;17.00;;;;;;;1.83;100.00;99838.41;5093634;28;20105;-41
2023/12/10 07:56:31;;;;;;;38.42;15.57;;;;;;;1.98;100.00;99844.06;5093367;28;20136;-45
2023/12/10 07:58:59;;;;;;;39.90;16.30;;;;;;;1.98;100.00;99840.56;5093913;28;20048;-39
2023/12/10 08:01:28;;;;;;;36.63;15.93;;;;;;;2.09;100.00;99850.75;5093129;28;20496;-41
2023/12/10 08:03:56;;;;;;;37.75;16.08;;;;;;;2.01;100.00;99858.88;5093209;28;20489;-39
2023/12/10 08:06:24;;;;;;;36.40;15.48;;;;;;;2.18;100.00;99848.69;5093352;28;20460;-40
2023/12/10 08:08:53;;;;;;;37.78;16.30;;;;;;;2.21;100.00;99856.47;5093447;28;20149;-41
2023/12/10 08:11:21;;;;;;;34.88;15.43;;;;;;;2.03;100.00;99856.19;5093056;28;20040;-41
2023/12/10 08:13:51;;;;;;;35.13;15.57;;;;;;;2.03;100.00;99850.94;5093237;28;20048;-40
2023/12/10 08:16:20;;;;;;;36.28;15.02;;;;;;;1.83;100.00;99854.19;5092695;28;20052;-41
2023/12/10 08:18:48;;;;;;;36.00;14.50;;;;;;;1.70;100.00;99864.22;5092931;28;20137;-41
2023/12/10 08:21:17;;;;;;;34.35;15.10;;;;;;;1.85;100.00;99868.19;5093209;28;20048;-40
2023/12/10 08:23:45;;;;;;;34.25;15.48;;;;;;;2.03;100.00;99862.34;5093146;28;20048;-43
2023/12/10 08:26:14;;;;;;;32.65;15.00;;;;;;;2.10;100.00;99869.13;5092699;28;20055;-40
2023/12/10 08:28:42;;;;;;;34.90;15.38;;;;;;;2.40;100.00;99871.66;5092985;28;20055;-44
2023/12/10 08:31:12;;;;;;;30.08;14.63;;;;;;;2.39;100.00;99865.53;5092584;28;20048;-40
2023/12/10 08:33:44;;;;;;;29.63;14.23;;;;;;;2.40;100.00;99869.03;5091376;28;20070;-41
2023/12/10 08:36:13;;;;;;;32.47;14.43;;;;;;;2.37;100.00;99871.78;5092502;28;20056;-40
2023/12/10 08:38:41;;;;;;;29.58;13.13;;;;;;;2.39;100.00;99876.06;5092563;28;20052;-41
2023/12/10 08:41:10;;;;;;;31.23;14.80;;;;;;;2.41;100.00;99873.38;5092434;28;20051;-41
2023/12/10 08:43:38;;;;;;;29.83;14.65;;;;;;;2.52;100.00;99887.09;5092575;28;20048;-42
2023/12/10 08:46:08;;;;;;;31.02;14.50;;;;;;;2.58;100.00;99887.72;5092871;28;20052;-42
2023/12/10 08:48:40;;;;;;;30.63;15.05;;;;;;;2.67;100.00;99891.81;5092781;28;20051;-41
2023/12/10 08:51:09;;;;;;;26.70;13.63;;;;;;;2.55;100.00;99900.13;5091236;28;20546;-41
2023/12/10 08:53:37;;;;;;;29.77;13.63;;;;;;;2.17;100.00;99896.09;5092499;28;20056;-41
2023/12/10 08:56:06;;;;;;;28.25;13.93;;;;;;;2.35;100.00;99897.28;5092896;28;20109;-41
2023/12/10 08:58:34;;;;;;;28.00;13.18;;;;;;;2.38;100.00;99902.44;5092056;28;20128;-41
2023/12/10 09:01:03;;;;;;;27.83;13.55;;;;;;;2.05;100.00;99902.63;5092480;28;20097;-40
2023/12/10 09:03:31;;;;;;;27.70;13.73;;;;;;;2.28;100.00;99902.75;5092315;28;20378;-40
2023/12/10 09:06:01;;;;;;;30.95;14.23;;;;;;;2.46;100.00;99898.66;5092227;28;20105;-42
2023/12/10 09:08:30;;;;;;;24.90;12.93;;;;;;;2.49;100.00;99906.44;5092153;28;20048;-42
2023/12/10 09:11:03;;;;;;;28.85;14.27;;;;;;;2.57;100.00;99903.56;5091740;28;20374;-40
2023/12/10 09:13:32;;;;;;;29.08;14.05;;;;;;;2.67;100.00;99912.88;5092428;28;20050;-41
2023/12/10 09:16:01;;;;;;;38.72;17.00;;;;;;;2.74;100.00;99910.91;5092213;28;20178;-40
2023/12/10 09:18:29;;;;;;;199.25;93.45;;;;;;;2.87;100.00;99906.94;5092097;28;20048;-41
2023/12/10 09:20:58;;;;;;;96.55;46.50;;;;;;;3.02;100.00;99902.94;5091999;28;20131;-40
2023/12/10 09:23:28;;;;;;;38.30;20.05;;;;;;;2.98;100.00;99907.44;5091801;28;20138;-41
2023/12/10 09:25:56;;;;;;;32.50;16.02;;;;;;;2.98;100.00;99909.22;5091893;28;20462;-43
2023/12/10 09:28:25;;;;;;;30.85;15.43;;;;;;;2.95;100.00;99911.97;5092042;28;20097;-40
2023/12/10 09:30:53;;;;;;;27.58;14.02;;;;;;;3.03;100.00;99909.94;5091847;28;20051;-46
2023/12/10 09:33:21;;;;;;;28.30;14.82;;;;;;;3.02;100.00;99913.47;5091677;28;20101;-41
2023/12/10 09:35:50;;;;;;;26.30;13.23;;;;;;;3.03;100.00;99899.38;5091580;28;20130;-42
2023/12/10 09:38:18;;;;;;;27.17;13.93;;;;;;;3.04;100.00;99893.19;5091962;28;20098;-40
2023/12/10 09:40:47;;;;;;;27.13;13.68;;;;;;;3.06;100.00;99894.00;5092135;28;20408;-40
2023/12/10 09:43:16;;;;;;;28.25;14.02;;;;;;;3.10;100.00;99900.91;5092586;28;20488;-41
2023/12/10 09:45:44;;;;;;;28.20;14.57;;;;;;;3.10;100.00;99911.44;5093472;28;20044;-43
2023/12/10 09:48:13;;;;;;;25.58;14.30;;;;;;;3.14;100.00;99907.78;5092300;28;20424;-41
2023/12/10 09:50:42;;;;;;;30.45;14.88;;;;;;;3.25;100.00;99915.28;5092385;28;20048;-42
2023/12/10 09:53:10;;;;;;;27.30;13.52;;;;;;;3.29;100.00;99906.38;5093000;28;20063;-40
2023/12/10 09:55:39;;;;;;;30.20;14.65;;;;;;;3.30;100.00;99906.31;5092389;28;20485;-39
2023/12/10 09:58:08;;;;;;;28.42;14.10;;;;;;;3.30;100.00;99908.09;5092956;28;20055;-40
2023/12/10 10:00:37;;;;;;;24.80;13.80;;;;;;;3.37;100.00;99907.78;5092464;28;20044;-41
2023/12/10 10:03:08;;;;;;;29.35;14.25;;;;;;;3.42;100.00;99916.41;5095927;28;20503;-40
2023/12/10 10:05:37;;;;;;;28.30;14.88;;;;;;;3.40;100.00;99915.63;5096918;28;20093;-41
2023/12/10 10:08:05;;;;;;;28.90;15.55;;;;;;;3.47;100.00;99915.38;5096641;28;20050;-41
2023/12/10 10:10:33;;;;;;;29.25;15.00;;;;;;;3.51;100.00;99922.28;5097041;28;20432;-42
2023/12/10 10:13:02;;;;;;;28.13;14.93;;;;;;;3.58;100.00;99903.53;5096845;28;20055;-41
2023/12/10 10:15:32;;;;;;;25.48;13.70;;;;;;;3.65;100.00;99915.56;5096670;28;20044;-41
2023/12/10 10:18:00;;;;;;;29.70;15.73;;;;;;;3.67;100.00;99918.16;5096880;28;20138;-41
2023/12/10 10:20:29;;;;;;;29.10;13.75;;;;;;;3.74;100.00;99909.09;5096765;28;20063;-41
2023/12/10 10:22:58;;;;;;;27.63;14.52;;;;;;;3.80;100.00;99908.88;5095975;28;20135;-48
2023/12/10 10:25:26;;;;;;;28.27;14.70;;;;;;;3.90;100.00;99899.69;5095304;28;20048;-40
2023/12/10 10:27:55;;;;;;;33.83;16.83;;;;;;;3.94;100.00;99905.69;5094857;28;20068;-43
2023/12/10 10:30:23;;;;;;;28.08;15.07;;;;;;;4.02;100.00;99912.38;5093729;28;20048;-40
2023/12/10 10:32:56;;;;;;;25.33;13.70;;;;;;;4.05;100.00;99913.19;5094316;28;20095;-40
2023/12/10 10:35:25;;;;;;;24.02;12.88;;;;;;;4.01;100.00;99913.31;5094035;28;20085;-40
2023/12/10 10:37:53;;;;;;;27.55;14.77;;;;;;;3.98;100.00;99902.88;5093917;28;20447;-40
2023/12/10 10:40:22;;;;;;;23.02;13.55;;;;;;;3.94;100.00;99906.53;5094970;28;20048;-42
2023/12/10 10:42:51;;;;;;;23.55;13.73;;;;;;;3.91;100.00;99901.41;5094889;28;20531;-40
2023/12/10 10:45:19;;;;;;;25.15;14.00;;;;;;;3.87;100.00;99906.88;5094914;28;20461;-41
2023/12/10 10:47:48;;;;;;;21.95;13.23;;;;;;;3.90;100.00;99910.22;5094840;28;20101;-41
2023/12/10 10:50:19;;;;;;;24.52;13.85;;;;;;;3.94;100.00;99913.59;5094827;28;20498;-42
2023/12/10 10:52:54;;;;;;;22.27;13.07;;;;;;;3.90;100.00;99912.88;5094634;28;20090;-42
2023/12/10 10:55:23;;;;;;;24.65;14.13;;;;;;;3.77;100.00;99914.28;5094375;28;20071;-41
2023/12/10 10:57:52;;;;;;;25.63;14.55;;;;;;;3.66;100.00;99917.28;5095183;28;20044;-42
2023/12/10 11:00:36;;;;;;;25.55;15.45;;;;;;;3.74;100.00;99924.91;5100293;28;20052;-41
2023/12/10 11:03:08;;;;;;;28.58;15.13;;;;;;;3.76;100.00;99920.44;5094837;28;20044;-39
2023/12/10 11:05:39;;;;;;;28.67;15.80;;;;;;;3.45;100.00;99918.94;5094506;28;20048;-41
2023/12/10 11:08:12;;;;;;;32.28;15.90;;;;;;;3.53;100.00;99923.94;5094601;28;20052;-42
2023/12/10 11:10:44;;;;;;;31.63;16.38;;;;;;;3.34;100.00;99934.28;5094436;28;20450;-41
2023/12/10 11:13:13;;;;;;;31.73;15.85;;;;;;;3.26;100.00;99938.09;5092994;28;20044;-40
2023/12/10 11:15:41;;;;;;;28.48;16.80;;;;;;;3.20;100.00;99948.88;5094286;28;20407;-41
2023/12/10 11:18:11;;;;;;;27.67;15.93;;;;;;;2.93;100.00;99943.63;5094060;28;20044;-41
2023/12/10 11:20:43;;;;;;;31.85;15.95;;;;;;;2.93;100.00;99929.59;5094248;28;20048;-41
2023/12/10 11:23:13;;;;;;;29.85;15.40;;;;;;;3.11;100.00;99934.25;5094178;28;20054;-40
2023/12/10 11:25:42;;;;;;;23.60;13.18;;;;;;;2.81;100.00;99934.38;5093965;28;20138;-41